Impacts TAF Board INFO
FOR SITUATIONAL AWARENESS. NOT TO BE USED FOR FLIGHT PLANNING PURPOSES.
IDs:

KEET - Alabaster/Shelby Cnt, AL, US

Issued at 1740 UTC 23 May 2018
Updated at 2227 UTC 23 May 2018
Potential Impact None Slight Moderate High
Time<<24/11Z 24/12Z 24/13Z 24/14Z 24/15Z 24/16Z 24/17Z 24/18Z 24/19Z 24/20Z 24/21Z 24/22Z 24/23Z>>
Type PRVL PRVL PRVL PRVL PRVL PRVL PRVL
VIS >6 >6 >6 >6 >6 >6 >6
CIG 50 50 50 50 50 50 50
Cover BKN BKN BKN BKN BKN BKN BKN
FltCat VFR VFR VFR VFR VFR VFR VFR
WX -- -- -- -- -- -- --
WDir VRB VRB VRB VRB VRB VRB VRB
WSpd 0 0 0 0 0 0 0
WGst -- -- -- -- -- -- --

Raw TAF
KEET 231740Z 2318/2418 35005KT P6SM VCTS BKN040CB
  TEMPO 2318/2320 6SM -TSRA BKN035CB
  FM232200 01003KT P6SM VCSH BKN050
  FM240000 00000KT P6SM BKN050


METAR Board
Radar Display
Forecast Discussion

FOR SITUATIONAL AWARENESS. NOT TO BE USED FOR FLIGHT PLANNING PURPOSES.